Terminal Aerodrome Forecast
Issued by NWS St Louis, MO

Home | Current Version | Previous Version | Text Only | Print | Product List | Glossary On
Versions: 1 2 3 4 5 6 7 8 9 10 11 12 13 14 15 16 17 18 19 20 21 22 23 24 25 26 27
000
FTUS43 KLSX 221400 AAA
TAFSTL
TAF AMD
KSTL 221457Z 2215/2318 14010KT 3SM -RA BR OVC008
     FM230000 17011KT 4SM -RA BR OVC008
     FM230500 23010KT P6SM OVC025=

USA.gov is the U.S. government's official web portal to all federal, state and local government web resources and services.